Time;durP1;ratioP1;P1;durP2;ratioP2;P2;SDS_P1;SDS_P2;PMS_P1;PMS_P2;Temp;Humidity;BMP_temperature;BMP_pressure;BME280_temperature;BME280_humidity;BME280_pressure;Samples;Min_cycle;Max_cycle;Signal;HPM_P1;HPM_P2
2022/10/05 00:00:24;;;;;;;4.65;2.75;;;;;;;8.42;99.35;97332.19;1735938;82;21015;-90
2022/10/05 00:02:53;;;;;;;4.80;2.25;;;;;;;8.39;99.33;97331.19;1733823;83;21005;-89
2022/10/05 00:05:29;;;;;;;3.67;2.27;;;;;;;8.35;99.35;97331.96;1731041;82;21347;-89
2022/10/05 00:07:58;;;;;;;4.62;2.33;;;;;;;8.31;99.55;97331.08;1728565;82;21346;-88
2022/10/05 00:10:25;;;;;;;6.37;3.20;;;;;;;8.28;99.68;97324.87;1702427;82;21424;-89
2022/10/05 00:12:50;;;;;;;6.00;2.37;;;;;;;8.24;100.00;97318.35;1717576;83;20968;-89
2022/10/05 00:15:17;;;;;;;5.60;2.67;;;;;;;8.22;100.00;97326.75;1710789;83;20974;-90
2022/10/05 00:17:43;;;;;;;4.42;2.62;;;;;;;8.18;100.00;97321.05;1718478;83;21517;-89
2022/10/05 00:20:21;;;;;;;3.22;1.82;;;;;;;8.16;100.00;97320.38;1694317;83;21006;-89
2022/10/05 00:22:47;;;;;;;5.70;2.17;;;;;;;8.13;100.00;97315.02;1709054;83;20952;-89
2022/10/05 00:25:16;;;;;;;4.42;2.47;;;;;;;8.11;100.00;97305.26;1698681;83;21038;-89
2022/10/05 00:27:42;;;;;;;6.58;2.92;;;;;;;8.08;100.00;97300.84;1714440;83;21106;-89
2022/10/05 00:30:15;;;;;;;5.70;2.20;;;;;;;8.07;100.00;97314.75;1691305;83;21003;-89
2022/10/05 00:32:41;;;;;;;5.05;2.60;;;;;;;8.06;100.00;97313.13;1724036;83;21023;-90
2022/10/05 00:35:08;;;;;;;4.40;2.20;;;;;;;8.08;100.00;97314.61;1720405;83;21287;-88
2022/10/05 00:37:33;;;;;;;5.83;2.50;;;;;;;8.08;100.00;97315.09;1699948;83;21028;-89
2022/10/05 00:40:00;;;;;;;3.55;2.50;;;;;;;8.07;100.00;97316.05;1719321;83;21110;-90
2022/10/05 00:42:53;;;;;;;5.42;2.33;;;;;;;8.06;100.00;97311.83;1704505;83;21481;-90
2022/10/05 00:45:33;;;;;;;2.85;2.20;;;;;;;8.07;100.00;97308.28;1703796;83;21011;-90
2022/10/05 00:48:17;;;;;;;6.05;2.58;;;;;;;8.07;100.00;97310.87;1711320;83;20980;-89
2022/10/05 00:51:01;;;;;;;3.50;2.65;;;;;;;8.07;100.00;97313.46;1701782;83;21031;-89
2022/10/05 00:53:35;;;;;;;3.87;2.35;;;;;;;8.05;100.00;97316.20;1710579;83;20932;-89
2022/10/05 00:56:26;;;;;;;5.85;2.67;;;;;;;8.06;100.00;97309.24;1715675;83;21052;-90
2022/10/05 00:59:12;;;;;;;6.95;2.72;;;;;;;8.05;100.00;97306.32;1695312;83;20998;-90
2022/10/05 01:01:50;;;;;;;3.08;2.50;;;;;;;8.04;100.00;97309.39;1695057;83;20963;-90
2022/10/05 01:04:44;;;;;;;4.25;2.42;;;;;;;8.03;100.00;97302.58;1714851;83;20979;-90
2022/10/05 01:07:31;;;;;;;4.65;2.83;;;;;;;8.03;100.00;97300.00;1672577;84;21055;-90
2022/10/05 01:10:38;;;;;;;5.00;3.58;;;;;;;8.02;100.00;97290.60;1719180;82;21384;-89
2022/10/05 01:13:33;;;;;;;4.08;2.90;;;;;;;8.03;100.00;97296.59;1720456;83;20976;-90
2022/10/05 01:16:46;;;;;;;5.03;3.25;;;;;;;8.05;100.00;97294.67;1724215;83;21366;-90
2022/10/05 01:19:32;;;;;;;5.25;3.47;;;;;;;8.06;100.00;97282.88;1652000;86;21002;-88
2022/10/05 01:22:16;;;;;;;4.72;3.25;;;;;;;8.06;100.00;97279.00;1704767;83;20997;-89
2022/10/05 01:25:17;;;;;;;6.20;4.42;;;;;;;8.07;100.00;97276.74;1702797;83;20981;-90
2022/10/05 01:28:12;;;;;;;4.55;3.40;;;;;;;8.09;100.00;97282.59;1705206;83;21031;-90
2022/10/05 01:31:10;;;;;;;6.65;3.37;;;;;;;8.11;100.00;97279.84;1696671;83;21321;-90
2022/10/05 01:34:01;;;;;;;5.42;3.52;;;;;;;8.14;100.00;97279.59;1698350;83;21011;-90
2022/10/05 01:36:41;;;;;;;5.40;3.27;;;;;;;8.17;100.00;97285.77;1695038;83;20983;-90
2022/10/05 01:39:46;;;;;;;3.50;3.20;;;;;;;8.19;100.00;97281.73;1714969;83;21099;-90
2022/10/05 01:42:50;;;;;;;4.72;3.30;;;;;;;8.24;100.00;97275.63;1708042;83;21057;-88
2022/10/05 01:45:51;;;;;;;5.00;3.58;;;;;;;8.26;100.00;97274.52;1701739;83;21386;-89
2022/10/05 01:48:39;;;;;;;6.75;3.95;;;;;;;8.27;100.00;97270.16;1719438;83;21318;-88
2022/10/05 01:51:36;;;;;;;5.25;3.65;;;;;;;8.29;100.00;97269.53;1694784;83;21030;-90
2022/10/05 01:54:38;;;;;;;4.15;3.35;;;;;;;8.30;100.00;97262.13;1700388;83;21432;-88
2022/10/05 01:57:24;;;;;;;4.58;3.42;;;;;;;8.35;100.00;97260.75;1717179;83;21004;-90
2022/10/05 02:00:04;;;;;;;3.42;3.12;;;;;;;8.41;100.00;97264.52;1712637;83;21376;-89
2022/10/05 02:02:34;;;;;;;5.97;3.55;;;;;;;8.45;100.00;97261.14;1704133;83;20936;-90
2022/10/05 02:05:11;;;;;;;6.40;3.33;;;;;;;8.47;100.00;97263.14;1724195;83;20975;-90
2022/10/05 02:07:48;;;;;;;6.28;3.62;;;;;;;8.50;100.00;97272.72;1704601;83;21035;-89
2022/10/05 02:10:25;;;;;;;5.08;3.10;;;;;;;8.54;100.00;97271.94;1714691;83;21006;-89
2022/10/05 02:12:57;;;;;;;4.97;3.85;;;;;;;8.60;99.33;97266.16;1705382;83;20966;-90
2022/10/05 02:15:26;;;;;;;;;;;;;;;8.66;99.31;97267.69;1710118;82;21001;-89
2022/10/05 02:18:00;;;;;;;3.65;3.12;;;;;;;8.70;99.20;97261.73;1728230;82;20134;-90
2022/10/05 02:20:28;;;;;;;5.08;2.80;;;;;;;8.72;98.95;97257.20;1706851;83;21055;-90
2022/10/05 02:22:59;;;;;;;5.92;4.15;;;;;;;8.76;99.10;97267.59;1735633;83;20973;-90
2022/10/05 02:25:31;;;;;;;3.62;2.90;;;;;;;8.78;98.32;97259.19;1735649;82;21424;-89
2022/10/05 02:28:05;;;;;;;7.72;3.27;;;;;;;8.82;98.46;97249.37;1733746;83;20965;-90
2022/10/05 02:30:31;;;;;;;6.28;3.20;;;;;;;8.82;98.10;97242.89;1723863;83;21047;-90
2022/10/05 02:33:03;;;;;;;4.67;2.65;;;;;;;8.84;98.21;97227.52;1722866;82;21019;-88
2022/10/05 02:35:29;;;;;;;6.30;2.90;;;;;;;8.86;98.01;97223.00;1732640;83;21392;-90
2022/10/05 02:38:15;;;;;;;4.47;2.77;;;;;;;8.90;97.37;97218.31;1736439;82;20962;-89
2022/10/05 02:41:00;;;;;;;4.62;3.27;;;;;;;8.94;97.17;97216.56;1736172;83;21134;-89
2022/10/05 02:43:40;;;;;;;5.40;3.10;;;;;;;9.01;96.45;97212.41;1717584;82;20999;-90
2022/10/05 02:46:24;;;;;;;5.35;3.72;;;;;;;9.07;96.36;97208.39;1733404;82;20982;-90
2022/10/05 02:49:32;;;;;;;3.27;2.60;;;;;;;9.10;95.88;97209.38;1722272;82;21437;-91
2022/10/05 02:52:09;;;;;;;3.85;3.12;;;;;;;9.16;95.09;97198.91;1716424;83;20955;-91
2022/10/05 02:55:04;;;;;;;5.70;3.50;;;;;;;9.24;95.15;97205.42;1725624;83;21310;-90
2022/10/05 02:57:39;;;;;;;3.50;3.20;;;;;;;9.26;94.34;97204.78;1727318;82;21021;-90
2022/10/05 03:00:16;;;;;;;6.42;4.22;;;;;;;9.32;94.12;97208.08;1724677;83;21014;-90
2022/10/05 03:02:47;;;;;;;4.62;3.52;;;;;;;9.35;93.44;97219.92;1720189;82;21029;-89
2022/10/05 03:05:24;;;;;;;3.20;2.70;;;;;;;9.39;92.89;97209.08;1727527;82;21019;-89
2022/10/05 03:08:09;;;;;;;4.33;3.35;;;;;;;9.46;91.73;97212.70;1720647;83;20986;-89
2022/10/05 03:10:39;;;;;;;3.58;3.25;;;;;;;9.57;92.00;97203.81;1715122;82;20987;-90
2022/10/05 03:13:10;;;;;;;4.45;3.22;;;;;;;9.60;91.92;97197.85;1736376;82;20990;-90
2022/10/05 03:16:03;;;;;;;5.12;3.30;;;;;;;9.62;91.59;97197.21;1734571;82;21183;-89
2022/10/05 03:18:57;;;;;;;4.47;2.90;;;;;;;9.65;91.56;97183.59;1734385;82;20978;-90
2022/10/05 03:22:03;;;;;;;4.10;2.70;;;;;;;9.68;90.28;97194.47;1708410;82;21391;-89
2022/10/05 03:24:37;;;;;;;5.70;3.10;;;;;;;9.75;89.88;97190.75;1725906;82;21331;-90
2022/10/05 03:27:29;;;;;;;3.58;2.55;;;;;;;9.79;89.08;97198.09;1710240;82;20982;-90
2022/10/05 03:30:13;;;;;;;;;;;;;;;9.84;88.69;97200.20;1739754;82;20948;-89
2022/10/05 03:33:04;;;;;;;4.78;1.87;;;;;;;9.88;88.85;97191.13;1734774;82;20117;-90
2022/10/05 03:35:41;;;;;;;5.97;3.08;;;;;;;9.90;88.55;97206.05;1719760;82;20971;-90
2022/10/05 03:38:30;;;;;;;2.42;2.20;;;;;;;9.91;87.70;97215.47;1715717;82;21028;-90
2022/10/05 03:41:12;;;;;;;4.20;2.37;;;;;;;9.93;88.04;97227.34;1735001;82;21105;-89
2022/10/05 03:44:12;;;;;;;4.67;2.27;;;;;;;9.94;87.99;97238.55;1713861;82;20926;-90
2022/10/05 03:46:56;;;;;;;5.12;2.70;;;;;;;9.93;89.09;97233.02;1724220;82;20977;-90
2022/10/05 03:49:36;;;;;;;3.20;2.37;;;;;;;9.89;91.06;97251.16;1733140;82;21057;-90
2022/10/05 03:52:10;;;;;;;3.62;2.50;;;;;;;9.81;91.41;97260.22;1709841;82;21030;-89
2022/10/05 03:54:41;;;;;;;3.80;2.42;;;;;;;9.71;90.76;97273.30;1720593;82;20956;-89
2022/10/05 03:57:13;;;;;;;4.58;2.80;;;;;;;9.63;91.30;97277.98;1733120;82;20959;-89
2022/10/05 03:59:54;;;;;;;3.20;2.42;;;;;;;9.58;91.74;97275.01;1728204;82;21006;-89
2022/10/05 04:02:30;;;;;;;4.15;2.35;;;;;;;9.52;91.81;97278.23;1731750;82;20970;-89
2022/10/05 04:05:01;;;;;;;5.00;2.52;;;;;;;9.39;92.00;97273.92;1735107;82;21024;-89
2022/10/05 04:07:50;;;;;;;4.70;2.60;;;;;;;9.31;92.53;97275.99;1730004;82;21066;-89
2022/10/05 04:10:27;;;;;;;5.87;3.17;;;;;;;9.25;92.53;97276.58;1716174;82;21077;-90
2022/10/05 04:13:07;;;;;;;4.45;3.02;;;;;;;9.18;92.49;97283.83;1732868;82;21518;-90
2022/10/05 04:15:47;;;;;;;5.20;2.50;;;;;;;9.11;92.64;97281.48;1706811;83;20954;-91
2022/10/05 04:18:31;;;;;;;4.83;2.80;;;;;;;9.03;92.88;97277.88;1724768;82;20991;-91
2022/10/05 04:21:02;;;;;;;4.17;2.58;;;;;;;8.94;93.23;97274.06;1733461;81;21425;-90
2022/10/05 04:23:43;;;;;;;2.95;2.40;;;;;;;8.88;93.44;97265.60;1733519;82;20975;-90
2022/10/05 04:26:13;;;;;;;3.05;2.15;;;;;;;8.83;93.50;97260.88;1723738;83;21007;-90
2022/10/05 04:28:56;;;;;;;3.15;2.05;;;;;;;8.79;93.30;97252.27;1728453;83;21037;-90
2022/10/05 04:31:31;;;;;;;3.12;2.12;;;;;;;8.70;93.03;97239.22;1717857;83;21041;-90
2022/10/05 04:34:02;;;;;;;3.95;2.25;;;;;;;8.68;92.93;97241.63;1713708;82;20991;-89
2022/10/05 04:36:32;;;;;;;5.20;2.30;;;;;;;8.64;92.82;97233.83;1715794;82;20938;-90
2022/10/05 04:39:21;;;;;;;3.00;2.15;;;;;;;8.63;92.93;97236.09;1734281;82;20979;-91
2022/10/05 04:41:59;;;;;;;3.30;2.20;;;;;;;8.65;92.32;97226.39;1706770;83;21141;-91
2022/10/05 04:44:43;;;;;;;3.10;2.37;;;;;;;8.71;92.09;97218.02;1727107;83;21104;-90
2022/10/05 04:47:47;;;;;;;3.52;2.30;;;;;;;8.84;91.96;97213.27;1717816;83;21056;-91
2022/10/05 04:50:33;;;;;;;3.27;2.98;;;;;;;8.91;91.41;97206.50;1734707;82;20987;-91
2022/10/05 04:53:26;;;;;;;2.90;2.55;;;;;;;9.01;90.83;97209.83;1732178;83;21041;-90
2022/10/05 04:56:18;;;;;;;4.97;2.60;;;;;;;9.16;90.51;97208.80;1710727;82;21010;-90
2022/10/05 04:59:13;;;;;;;4.37;3.00;;;;;;;9.37;90.02;97216.20;1727273;82;20988;-90
2022/10/05 05:02:05;;;;;;;5.00;2.42;;;;;;;9.54;88.42;97211.43;1731925;82;21062;-89
2022/10/05 05:05:05;;;;;;;;;;;;;;;9.72;88.68;97218.31;1736612;83;20937;-90
2022/10/05 05:07:45;;;;;;;6.00;2.83;;;;;;;9.82;88.84;97220.31;1691808;83;20141;-90
2022/10/05 05:10:40;;;;;;;6.17;2.60;;;;;;;9.90;88.12;97221.63;1684173;83;21084;-90
2022/10/05 05:13:33;;;;;;;7.15;2.37;;;;;;;9.96;87.27;97215.02;1707465;83;21051;-90
2022/10/05 05:16:29;;;;;;;6.33;2.60;;;;;;;10.06;86.73;97213.89;1708130;83;20999;-90
2022/10/05 05:19:17;;;;;;;7.12;2.90;;;;;;;10.12;86.16;97216.37;1707108;84;21018;-90
2022/10/05 05:22:03;;;;;;;3.85;2.17;;;;;;;10.15;85.84;97213.45;1707109;84;20970;-89
2022/10/05 05:24:55;;;;;;;9.68;4.58;;;;;;;10.19;85.92;97211.66;1680560;84;20928;-90
2022/10/05 05:27:44;;;;;;;4.40;2.47;;;;;;;10.21;85.34;97211.05;1668134;86;21012;-89
2022/10/05 05:30:21;;;;;;;12.63;5.08;;;;;;;10.24;85.02;97208.61;1705819;84;20968;-90
2022/10/05 05:32:58;;;;;;;2.87;1.98;;;;;;;10.30;83.31;97211.89;1689122;84;21003;-90
2022/10/05 05:35:38;;;;;;;4.20;2.10;;;;;;;10.40;83.89;97213.03;1705310;84;20963;-90
2022/10/05 05:38:25;;;;;;;2.85;1.90;;;;;;;10.45;84.79;97213.38;1688183;84;20971;-89
2022/10/05 05:41:18;;;;;;;1.77;1.50;;;;;;;10.46;84.34;97211.92;1705576;83;21103;-89
2022/10/05 05:44:01;;;;;;;5.17;2.98;;;;;;;10.49;83.41;97209.48;1681051;84;20948;-90
2022/10/05 05:46:39;;;;;;;3.05;1.90;;;;;;;10.55;83.21;97212.73;1704130;84;21022;-90
2022/10/05 05:49:19;;;;;;;2.60;1.70;;;;;;;10.57;83.12;97211.27;1709233;84;20988;-90
2022/10/05 05:52:03;;;;;;;2.47;1.92;;;;;;;10.59;84.36;97204.14;1709077;83;20967;-90
2022/10/05 05:54:40;;;;;;;3.83;1.70;;;;;;;10.55;84.70;97200.22;1690575;84;20967;-90
2022/10/05 05:57:28;;;;;;;2.45;1.57;;;;;;;10.51;83.68;97185.45;1683099;84;20959;-90
2022/10/05 06:00:26;;;;;;;5.78;1.55;;;;;;;10.50;84.44;97183.34;1679958;84;20960;-89
2022/10/05 06:03:04;;;;;;;3.05;1.57;;;;;;;10.51;83.71;97190.64;1688865;84;21003;-90
2022/10/05 06:05:41;;;;;;;3.15;1.80;;;;;;;10.53;83.33;97194.70;1694082;84;21334;-90
2022/10/05 06:08:21;;;;;;;2.65;1.82;;;;;;;10.60;81.93;97196.19;1689306;83;21404;-90
2022/10/05 06:11:07;;;;;;;2.15;1.80;;;;;;;10.67;81.42;97199.75;1701727;84;21033;-89
2022/10/05 06:13:34;;;;;;;3.17;2.12;;;;;;;10.79;80.60;97215.35;1732040;82;21398;-90
2022/10/05 06:16:23;;;;;;;2.47;1.92;;;;;;;10.91;81.25;97218.45;1723207;82;21048;-90
2022/10/05 06:19:02;;;;;;;3.85;1.77;;;;;;;10.99;79.33;97234.03;1724989;83;20966;-91
2022/10/05 06:21:36;;;;;;;3.90;2.58;;;;;;;11.07;80.83;97228.84;1718240;83;20981;-91
2022/10/05 06:24:41;;;;;;;4.55;2.60;;;;;;;11.11;80.72;97230.12;1714478;83;21279;-90
2022/10/05 06:27:27;;;;;;;2.42;1.80;;;;;;;11.14;80.02;97239.39;1707316;83;21033;-90
2022/10/05 06:30:08;;;;;;;3.72;2.08;;;;;;;11.18;78.81;97240.67;1706232;82;21074;-91
2022/10/05 06:33:06;;;;;;;2.02;1.70;;;;;;;11.20;80.08;97240.51;1729955;82;20926;-91
2022/10/05 06:36:05;;;;;;;2.27;1.55;;;;;;;11.22;78.43;97236.77;1694966;84;21069;-91
2022/10/05 06:39:10;;;;;;;2.90;1.62;;;;;;;11.31;78.85;97240.99;1725970;82;20951;-91
2022/10/05 06:41:44;;;;;;;2.75;1.60;;;;;;;11.34;79.02;97240.66;1725437;82;21344;-90
2022/10/05 06:44:27;;;;;;;2.20;1.77;;;;;;;11.33;79.06;97239.52;1710000;83;20979;-90
2022/10/05 06:47:27;;;;;;;2.95;1.90;;;;;;;11.30;78.14;97243.27;1722772;83;21034;-90
2022/10/05 06:50:21;;;;;;;6.10;3.98;;;;;;;11.31;78.29;97249.28;1728117;82;20995;-90
2022/10/05 06:53:34;;;;;;;6.80;2.87;;;;;;;11.32;78.40;97254.81;1721303;83;20955;-90
2022/10/05 06:56:10;;;;;;;3.55;1.67;;;;;;;11.32;78.80;97244.41;1733730;82;21395;-89
2022/10/05 06:59:15;;;;;;;4.00;1.60;;;;;;;11.37;78.07;97240.32;1729209;82;21023;-90
2022/10/05 07:02:05;;;;;;;2.33;1.40;;;;;;;11.41;76.94;97245.54;1736972;82;20967;-90
2022/10/05 07:05:22;;;;;;;3.58;1.75;;;;;;;11.52;77.37;97245.66;1725097;82;20959;-90
2022/10/05 07:08:06;;;;;;;1.70;1.50;;;;;;;11.61;77.04;97237.36;1741583;81;21029;-90
2022/10/05 07:10:57;;;;;;;3.90;1.80;;;;;;;11.66;76.66;97230.66;1738735;82;20952;-90
2022/10/05 07:13:48;;;;;;;4.80;1.62;;;;;;;11.73;76.87;97246.44;1751908;80;21050;-90
2022/10/05 07:16:26;;;;;;;2.77;1.80;;;;;;;11.81;76.18;97245.62;1745724;82;21590;-90
2022/10/05 07:18:58;;;;;;;2.45;1.67;;;;;;;11.88;76.75;97243.49;1703717;83;20963;-89
2022/10/05 07:21:51;;;;;;;2.30;1.62;;;;;;;11.95;75.03;97236.61;1708860;82;21367;-90
2022/10/05 07:24:46;;;;;;;2.65;1.77;;;;;;;12.08;74.39;97231.36;1717984;82;21013;-90
2022/10/05 07:27:24;;;;;;;2.60;1.85;;;;;;;12.18;75.04;97228.03;1738722;82;20921;-90
2022/10/05 07:30:11;;;;;;;2.90;1.70;;;;;;;12.23;74.51;97236.98;1755251;80;20967;-90
2022/10/05 07:33:08;;;;;;;3.17;1.98;;;;;;;12.35;74.45;97228.75;1723461;82;20982;-90
2022/10/05 07:39:02;;;;;;;3.77;1.50;;;;;;;12.56;74.92;97236.30;1651456;84;21006;-89
2022/10/05 07:41:36;;;;;;;1.77;1.40;;;;;;;12.67;74.65;97238.16;1708885;82;21030;-89
2022/10/05 07:44:11;;;;;;;3.33;1.50;;;;;;;12.79;73.96;97236.28;1718697;83;21017;-89
2022/10/05 07:46:52;;;;;;;3.35;1.87;;;;;;;12.89;73.92;97234.75;1723794;82;21435;-89
2022/10/05 07:49:32;;;;;;;2.65;1.50;;;;;;;12.97;70.76;97238.59;1715792;83;20957;-90
2022/10/05 07:52:01;;;;;;;4.05;1.80;;;;;;;13.09;71.73;97242.90;1731969;83;21055;-90
2022/10/05 07:54:55;;;;;;;2.58;1.40;;;;;;;13.15;72.37;97240.38;1714445;83;21076;-89
2022/10/05 07:57:37;;;;;;;1.87;1.42;;;;;;;13.21;72.10;97248.05;1710865;82;21290;-89
2022/10/05 08:00:15;;;;;;;2.02;1.37;;;;;;;13.28;70.64;97245.53;1719399;83;21022;-90
2022/10/05 08:02:51;;;;;;;3.05;1.80;;;;;;;13.33;70.07;97239.28;1728427;83;21015;-90
2022/10/05 08:05:29;;;;;;;3.33;1.72;;;;;;;13.39;71.41;97240.70;1706665;83;21305;-90
2022/10/05 08:08:09;;;;;;;5.53;2.62;;;;;;;13.44;70.74;97241.46;1714871;82;21051;-89
2022/10/05 08:10:43;;;;;;;3.50;1.98;;;;;;;13.48;72.13;97234.89;1704182;83;20975;-89
2022/10/05 08:13:29;;;;;;;2.17;1.95;;;;;;;13.49;71.99;97236.01;1733693;82;21079;-90
2022/10/05 08:15:58;;;;;;;4.15;2.45;;;;;;;13.53;71.98;97229.16;1715270;82;21045;-89
2022/10/05 08:18:55;;;;;;;3.45;2.20;;;;;;;13.56;72.13;97225.68;1718600;82;20940;-89
2022/10/05 08:21:32;;;;;;;3.35;1.77;;;;;;;13.61;72.25;97224.64;1734601;81;21410;-88
2022/10/05 08:24:12;;;;;;;3.10;1.95;;;;;;;13.67;72.57;97225.23;1730885;82;21065;-90
2022/10/05 08:26:52;;;;;;;3.20;1.90;;;;;;;13.75;71.45;97225.13;1734996;82;21356;-89
2022/10/05 08:29:24;;;;;;;2.37;1.90;;;;;;;13.85;71.22;97226.67;1733969;83;21350;-90
2022/10/05 08:31:54;;;;;;;4.70;2.58;;;;;;;13.94;71.63;97228.98;1723478;83;21073;-90
2022/10/05 08:34:39;;;;;;;3.92;2.15;;;;;;;14.02;71.07;97225.48;1724611;82;22130;-89
2022/10/05 08:37:26;;;;;;;2.85;2.17;;;;;;;14.08;70.32;97236.00;1707070;83;21387;-89
2022/10/05 08:40:12;;;;;;;3.42;2.50;;;;;;;14.16;69.85;97250.78;1733108;82;21007;-90
2022/10/05 08:43:24;;;;;;;5.03;2.58;;;;;;;14.22;70.21;97244.81;1735152;82;21121;-89
2022/10/05 08:46:16;;;;;;;2.95;2.12;;;;;;;14.26;70.44;97244.75;1726476;83;21314;-90
2022/10/05 08:49:19;;;;;;;4.35;2.50;;;;;;;14.33;69.26;97252.19;1723311;82;21429;-90
2022/10/05 08:52:03;;;;;;;4.25;2.20;;;;;;;14.37;69.66;97264.39;1735386;82;20946;-90
2022/10/05 08:55:01;;;;;;;3.22;2.20;;;;;;;14.42;69.43;97275.10;1733140;82;21043;-89
2022/10/05 08:57:52;;;;;;;2.83;2.10;;;;;;;14.50;68.99;97278.16;1721141;83;20938;-90
2022/10/05 09:00:22;;;;;;;5.42;2.30;;;;;;;14.56;69.19;97276.09;1736498;83;20965;-90
2022/10/05 09:03:14;;;;;;;5.67;2.92;;;;;;;14.61;69.63;97283.69;1708870;82;20986;-90
2022/10/05 09:06:13;;;;;;;3.45;2.37;;;;;;;14.65;70.06;97276.31;1735071;82;21017;-90
2022/10/05 09:09:09;;;;;;;7.15;2.67;;;;;;;14.71;69.54;97270.32;1721868;83;20942;-89
2022/10/05 09:11:41;;;;;;;4.40;3.15;;;;;;;14.77;69.10;97272.69;1725429;82;20968;-89
2022/10/05 09:14:28;;;;;;;2.90;2.50;;;;;;;14.83;69.41;97272.77;1734891;82;21033;-89
2022/10/05 09:17:23;;;;;;;5.85;3.47;;;;;;;14.89;69.61;97275.13;1720886;82;21333;-89
2022/10/05 09:20:02;;;;;;;2.80;2.05;;;;;;;14.90;69.52;97273.63;1671581;83;21006;-89
2022/10/05 09:22:58;;;;;;;4.70;2.35;;;;;;;14.97;68.34;97281.06;1704499;83;20979;-90
2022/10/05 09:25:36;;;;;;;3.05;2.02;;;;;;;15.06;69.63;97273.88;1717755;83;21055;-91
2022/10/05 09:28:31;;;;;;;3.10;1.90;;;;;;;15.20;69.57;97274.80;1722416;82;20985;-90
2022/10/05 09:31:12;;;;;;;4.40;2.15;;;;;;;15.33;68.99;97264.44;1720770;83;20914;-90
2022/10/05 09:34:21;;;;;;;5.40;2.27;;;;;;;15.47;69.49;97271.91;1716254;83;21037;-90
2022/10/05 09:37:25;;;;;;;4.97;3.08;;;;;;;15.58;68.90;97270.86;1726770;82;20986;-90
2022/10/05 09:40:18;;;;;;;5.45;2.20;;;;;;;15.67;68.10;97274.68;1724799;82;21078;-91
2022/10/05 09:43:18;;;;;;;3.45;2.12;;;;;;;15.70;67.08;97271.67;1699962;83;20995;-90
2022/10/05 09:46:17;;;;;;;2.58;2.12;;;;;;;15.73;67.37;97275.21;1718939;83;20958;-90
2022/10/05 09:49:25;;;;;;;3.87;2.05;;;;;;;15.72;66.11;97275.72;1723345;82;21075;-89
2022/10/05 09:52:24;;;;;;;4.75;2.33;;;;;;;15.72;67.49;97273.09;1714824;82;21010;-90
2022/10/05 09:55:25;;;;;;;4.83;2.30;;;;;;;15.78;67.22;97276.28;1715315;82;21354;-90
2022/10/05 09:58:32;;;;;;;3.95;1.80;;;;;;;15.83;66.80;97269.95;1710847;83;20951;-91
2022/10/05 10:01:28;;;;;;;2.02;1.57;;;;;;;15.87;67.38;97269.86;1706574;82;20932;-90
2022/10/05 10:04:29;;;;;;;3.58;1.98;;;;;;;15.92;66.13;97279.76;1718990;82;20956;-90
2022/10/05 10:07:12;;;;;;;4.42;2.52;;;;;;;15.97;66.32;97276.58;1706665;83;21345;-90
2022/10/05 10:10:28;;;;;;;3.52;1.90;;;;;;;16.00;66.16;97269.12;1705747;83;20994;-90
2022/10/05 10:13:18;;;;;;;2.67;1.87;;;;;;;16.02;65.54;97266.31;1669089;84;21075;-91
2022/10/05 10:16:23;;;;;;;4.62;2.42;;;;;;;16.06;64.70;97265.72;1705946;83;21015;-90
2022/10/05 10:19:29;;;;;;;3.83;2.42;;;;;;;16.04;64.94;97258.55;1727141;83;20944;-90
2022/10/05 10:22:16;;;;;;;3.75;2.80;;;;;;;16.01;66.28;97259.45;1727067;83;21389;-90
2022/10/05 10:25:10;;;;;;;7.95;4.97;;;;;;;15.97;65.74;97259.55;1704724;83;20959;-91
2022/10/05 10:28:07;;;;;;;3.85;2.55;;;;;;;15.94;65.21;97258.59;1704458;83;20951;-90
2022/10/05 10:30:54;;;;;;;3.55;2.80;;;;;;;15.96;65.22;97260.05;1714816;83;21373;-90
2022/10/05 10:33:52;;;;;;;4.28;2.60;;;;;;;16.02;64.23;97255.33;1719712;83;20931;-91
2022/10/05 10:37:02;;;;;;;4.15;2.55;;;;;;;16.06;65.19;97257.86;1681274;83;20959;-90
2022/10/05 10:39:51;;;;;;;3.47;2.10;;;;;;;16.09;63.28;97257.96;1724206;83;21358;-90
2022/10/05 10:43:07;;;;;;;2.98;2.30;;;;;;;16.04;63.86;97279.53;1701946;83;21323;-90
2022/10/05 10:46:21;;;;;;;3.87;2.17;;;;;;;16.01;63.57;97273.88;1706125;83;21385;-90
2022/10/05 10:49:09;;;;;;;2.60;2.40;;;;;;;16.01;64.98;97276.49;1704912;83;20956;-90
2022/10/05 10:51:52;;;;;;;4.22;2.80;;;;;;;16.01;65.46;97275.98;1695596;84;21265;-90
2022/10/05 10:54:39;;;;;;;2.30;2.10;;;;;;;16.01;64.41;97270.75;1697599;84;21428;-90
2022/10/05 10:57:12;;;;;;;6.70;2.30;;;;;;;16.05;64.46;97277.21;1697872;83;21030;-90
2022/10/05 10:59:56;;;;;;;3.60;2.87;;;;;;;16.10;64.57;97278.73;1690956;83;20953;-90
2022/10/05 11:02:45;;;;;;;3.58;3.00;;;;;;;16.18;64.91;97278.59;1722384;81;21015;-89
2022/10/05 11:05:31;;;;;;;4.20;2.35;;;;;;;16.28;65.40;97285.30;1697453;83;21425;-91
2022/10/05 11:08:52;;;;;;;5.80;2.92;;;;;;;16.37;63.99;97281.48;1716004;83;21053;-90
2022/10/05 11:11:53;;;;;;;3.80;2.60;;;;;;;16.49;65.26;97283.86;1697614;83;21027;-90
2022/10/05 11:15:01;;;;;;;5.15;2.42;;;;;;;16.66;65.62;97270.69;1724547;83;21026;-90
2022/10/05 11:18:00;;;;;;;3.45;2.30;;;;;;;16.74;63.65;97282.33;1725444;82;20994;-90
2022/10/05 11:20:41;;;;;;;3.75;2.00;;;;;;;16.78;64.29;97282.27;1752039;80;20990;-88
2022/10/05 11:23:51;;;;;;;3.10;2.05;;;;;;;16.83;63.15;97283.48;1742812;82;21010;-90
2022/10/05 11:26:52;;;;;;;2.30;1.75;;;;;;;16.87;62.47;97280.24;1743443;80;20907;-91
2022/10/05 11:29:42;;;;;;;3.12;1.90;;;;;;;16.93;62.60;97287.34;1717549;81;21492;-90
2022/10/05 11:32:34;;;;;;;3.90;2.05;;;;;;;16.98;62.36;97278.35;1724237;82;20967;-90
2022/10/05 11:35:23;;;;;;;3.17;1.70;;;;;;;17.06;61.30;97274.71;1714006;82;20979;-90
2022/10/05 11:38:27;;;;;;;2.22;1.60;;;;;;;17.14;61.39;97276.35;1753664;80;21011;-90
2022/10/05 11:41:40;;;;;;;2.80;1.92;;;;;;;17.21;61.20;97278.46;1731221;80;21013;-90
2022/10/05 11:44:41;;;;;;;3.72;2.10;;;;;;;17.25;61.67;97277.88;1738219;80;21458;-90
2022/10/05 11:47:26;;;;;;;3.83;2.07;;;;;;;17.29;61.97;97279.59;1745175;80;20952;-90
2022/10/05 11:50:20;;;;;;;3.52;1.75;;;;;;;17.33;62.00;97285.55;1718267;82;20959;-91
2022/10/05 11:52:56;;;;;;;3.00;1.75;;;;;;;17.37;62.77;97274.93;1714914;82;21321;-90
2022/10/05 11:55:52;;;;;;;2.98;1.90;;;;;;;17.38;61.45;97277.86;1716491;83;20986;-90
2022/10/05 11:58:30;;;;;;;2.70;1.80;;;;;;;17.37;63.08;97276.24;1717657;82;20957;-91
2022/10/05 12:01:28;;;;;;;3.70;2.02;;;;;;;17.34;61.41;97279.78;1732441;82;20973;-91
2022/10/05 12:04:16;;;;;;;2.10;1.70;;;;;;;17.31;62.16;97276.26;1736029;82;20994;-91
2022/10/05 12:07:21;;;;;;;2.90;2.25;;;;;;;17.28;63.14;97271.41;1716265;83;20979;-86
2022/10/05 12:13:01;;;;;;;3.10;1.80;;;;;;;17.22;62.81;97274.83;1722668;82;21424;-86
2022/10/05 12:15:50;;;;;;;2.65;1.47;;;;;;;17.17;62.59;97275.44;1704764;82;20975;-86
2022/10/05 12:18:38;;;;;;;2.37;1.60;;;;;;;17.11;60.37;97269.69;1726315;83;21038;-86
2022/10/05 12:21:33;;;;;;;3.02;1.90;;;;;;;17.08;62.35;97272.69;1710625;82;21033;-86
2022/10/05 12:24:22;;;;;;;2.00;1.50;;;;;;;17.02;61.60;97273.50;1724878;82;21011;-86
2022/10/05 12:27:00;;;;;;;2.62;1.72;;;;;;;17.00;62.78;97268.97;1709526;82;20966;-86
2022/10/05 12:29:34;;;;;;;2.87;1.60;;;;;;;16.99;61.92;97267.34;1720337;83;20958;-86
2022/10/05 12:32:23;;;;;;;2.45;2.10;;;;;;;16.98;62.43;97259.98;1716646;82;21449;-86
2022/10/05 12:35:12;;;;;;;2.95;1.90;;;;;;;16.95;60.82;97262.20;1709128;82;20916;-86
2022/10/05 12:38:09;;;;;;;2.90;2.05;;;;;;;16.90;61.02;97261.97;1708191;82;21006;-84
2022/10/05 12:40:45;;;;;;;2.72;1.85;;;;;;;16.87;61.29;97256.63;1730870;82;20993;-86
2022/10/05 12:43:53;;;;;;;4.20;2.72;;;;;;;16.93;62.59;97252.41;1731568;83;21313;-87
2022/10/05 12:47:10;;;;;;;3.00;1.80;;;;;;;16.96;62.09;97246.75;1717009;82;20945;-87
2022/10/05 12:50:12;;;;;;;4.08;2.70;;;;;;;16.98;61.97;97249.98;1734441;82;21015;-86
2022/10/05 12:52:55;;;;;;;2.10;1.80;;;;;;;17.01;61.44;97248.27;1715654;83;20934;-87
2022/10/05 12:55:41;;;;;;;2.87;2.00;;;;;;;17.01;60.36;97249.58;1731596;83;21047;-85
2022/10/05 12:58:42;;;;;;;2.52;1.62;;;;;;;16.97;60.18;97246.55;1721548;82;21285;-87
2022/10/05 13:01:38;;;;;;;2.77;1.87;;;;;;;16.97;59.14;97246.55;1731641;82;21046;-86
2022/10/05 13:04:51;;;;;;;4.03;1.57;;;;;;;16.99;60.39;97233.22;1675363;84;20983;-86
2022/10/05 13:08:08;;;;;;;3.80;1.92;;;;;;;17.02;59.08;97236.24;1721153;82;21389;-86
2022/10/05 13:10:47;;;;;;;2.05;1.57;;;;;;;17.00;59.01;97223.02;1735087;82;20972;-86
2022/10/05 13:14:01;;;;;;;2.27;2.08;;;;;;;17.00;59.34;97225.64;1728435;82;20961;-87